sensor_id;sensor_type;location;lat;lon;timestamp;pressure;altitude;pressure_sealevel;temperature;humidity
7586;BME280;12459;42.646;23.292;2022-07-29T00:01:21;93785.16;;;20.05;79.62
7586;BME280;12459;42.646;23.292;2022-07-29T00:16:22;93815.59;;;19.58;80.77
7586;BME280;12459;42.646;23.292;2022-07-29T00:31:24;93798.47;;;19.94;79.26
7586;BME280;12459;42.646;23.292;2022-07-29T00:46:26;93807.13;;;19.74;81.15
7586;BME280;12459;42.646;23.292;2022-07-29T01:01:27;93806.53;;;19.80;80.24
7586;BME280;12459;42.646;23.292;2022-07-29T01:16:33;93797.03;;;21.70;72.17
7586;BME280;12459;42.646;23.292;2022-07-29T01:31:45;93774.28;;;20.38;77.85
7586;BME280;12459;42.646;23.292;2022-07-29T01:47:02;93772.66;;;19.90;80.91
7586;BME280;12459;42.646;23.292;2022-07-29T02:02:06;93766.59;;;22.15;70.96
7586;BME280;12459;42.646;23.292;2022-07-29T02:17:10;93756.72;;;20.06;81.14
7586;BME280;12459;42.646;23.292;2022-07-29T02:32:12;93752.41;;;19.91;81.86
7586;BME280;12459;42.646;23.292;2022-07-29T03:02:22;93730.38;;;21.17;75.60
7586;BME280;12459;42.646;23.292;2022-07-29T03:17:25;93738.47;;;20.88;77.29
7586;BME280;12459;42.646;23.292;2022-07-29T03:32:26;93747.91;;;19.51;83.52
7586;BME280;12459;42.646;23.292;2022-07-29T03:47:28;93750.47;;;20.81;79.46
7586;BME280;12459;42.646;23.292;2022-07-29T04:02:51;93752.16;;;21.41;77.02
7586;BME280;12459;42.646;23.292;2022-07-29T04:17:52;93752.22;;;23.05;72.71
7586;BME280;12459;42.646;23.292;2022-07-29T04:32:54;93750.25;;;24.30;68.09
7586;BME280;12459;42.646;23.292;2022-07-29T04:47:55;93762.59;;;25.53;62.80
7586;BME280;12459;42.646;23.292;2022-07-29T05:02:57;93787.28;;;25.42;61.71
7586;BME280;12459;42.646;23.292;2022-07-29T05:17:59;93784.84;;;25.61;60.21
7586;BME280;12459;42.646;23.292;2022-07-29T05:33:01;93783.97;;;26.14;57.43
7586;BME280;12459;42.646;23.292;2022-07-29T05:48:02;93785.47;;;26.65;56.91
7586;BME280;12459;42.646;23.292;2022-07-29T06:03:04;93794.75;;;28.01;52.55
7586;BME280;12459;42.646;23.292;2022-07-29T06:18:06;93802.72;;;26.27;56.05
7586;BME280;12459;42.646;23.292;2022-07-29T06:33:15;93800.94;;;28.53;52.23
7586;BME280;12459;42.646;23.292;2022-07-29T06:48:17;93787.94;;;28.13;53.01
7586;BME280;12459;42.646;23.292;2022-07-29T07:03:18;93792.47;;;27.58;53.04
7586;BME280;12459;42.646;23.292;2022-07-29T07:18:20;93787.81;;;27.88;53.37
7586;BME280;12459;42.646;23.292;2022-07-29T07:33:21;93782.97;;;27.59;53.51
7586;BME280;12459;42.646;23.292;2022-07-29T07:48:23;93783.72;;;28.72;47.93
7586;BME280;12459;42.646;23.292;2022-07-29T08:03:25;93779.16;;;29.29;48.36
7586;BME280;12459;42.646;23.292;2022-07-29T08:18:28;93784.63;;;28.80;48.52
7586;BME280;12459;42.646;23.292;2022-07-29T08:33:29;93782.66;;;29.29;47.08
7586;BME280;12459;42.646;23.292;2022-07-29T08:48:31;93781.53;;;29.62;44.25
7586;BME280;12459;42.646;23.292;2022-07-29T09:03:34;93773.94;;;28.05;47.29
7586;BME280;12459;42.646;23.292;2022-07-29T09:33:37;93761.34;;;32.84;38.04
7586;BME280;12459;42.646;23.292;2022-07-29T09:48:41;93766.50;;;29.76;43.82
7586;BME280;12459;42.646;23.292;2022-07-29T10:03:52;93751.47;;;30.28;43.75
7586;BME280;12459;42.646;23.292;2022-07-29T10:18:54;93730.31;;;31.29;41.29
7586;BME280;12459;42.646;23.292;2022-07-29T10:34:13;93717.25;;;31.97;39.09
7586;BME280;12459;42.646;23.292;2022-07-29T10:49:20;93705.88;;;31.88;40.90
7586;BME280;12459;42.646;23.292;2022-07-29T11:19:50;93685.72;;;32.70;36.92
7586;BME280;12459;42.646;23.292;2022-07-29T11:50:32;93662.50;;;32.60;36.87
7586;BME280;12459;42.646;23.292;2022-07-29T12:20:49;93653.06;;;31.72;38.88
7586;BME280;12459;42.646;23.292;2022-07-29T12:35:58;93644.56;;;33.85;34.78
7586;BME280;12459;42.646;23.292;2022-07-29T12:51:11;93638.41;;;32.27;35.40
7586;BME280;12459;42.646;23.292;2022-07-29T13:06:32;93616.84;;;32.69;34.31
7586;BME280;12459;42.646;23.292;2022-07-29T13:21:35;93608.47;;;32.61;34.86
7586;BME280;12459;42.646;23.292;2022-07-29T13:36:36;93589.03;;;32.25;36.81
7586;BME280;12459;42.646;23.292;2022-07-29T13:51:41;93586.22;;;32.04;35.58
7586;BME280;12459;42.646;23.292;2022-07-29T14:06:43;93583.13;;;31.87;34.96
7586;BME280;12459;42.646;23.292;2022-07-29T14:21:45;93580.47;;;32.02;34.92
7586;BME280;12459;42.646;23.292;2022-07-29T14:36:47;93586.88;;;32.39;34.88
7586;BME280;12459;42.646;23.292;2022-07-29T14:51:49;93580.38;;;32.65;34.79
7586;BME280;12459;42.646;23.292;2022-07-29T15:06:51;93582.28;;;31.71;36.18
7586;BME280;12459;42.646;23.292;2022-07-29T15:21:53;93569.59;;;31.63;36.70
7586;BME280;12459;42.646;23.292;2022-07-29T15:37:00;93561.63;;;30.91;37.88
7586;BME280;12459;42.646;23.292;2022-07-29T15:52:02;93564.03;;;30.61;39.15
7586;BME280;12459;42.646;23.292;2022-07-29T16:07:04;93562.81;;;29.58;40.13
7586;BME280;12459;42.646;23.292;2022-07-29T16:22:06;93559.13;;;29.37;41.04
7586;BME280;12459;42.646;23.292;2022-07-29T16:37:07;93562.94;;;29.34;39.98
7586;BME280;12459;42.646;23.292;2022-07-29T16:52:09;93563.50;;;29.77;39.89
7586;BME280;12459;42.646;23.292;2022-07-29T17:07:11;93567.19;;;29.35;40.27
7586;BME280;12459;42.646;23.292;2022-07-29T17:22:12;93570.44;;;28.39;44.69
7586;BME280;12459;42.646;23.292;2022-07-29T17:37:19;93564.00;;;28.31;42.69
7586;BME280;12459;42.646;23.292;2022-07-29T17:52:21;93570.56;;;27.98;41.21
7586;BME280;12459;42.646;23.292;2022-07-29T18:07:22;93580.84;;;27.97;41.44
7586;BME280;12459;42.646;23.292;2022-07-29T18:22:24;93582.81;;;27.07;44.06
7586;BME280;12459;42.646;23.292;2022-07-29T18:37:26;93602.78;;;27.13;42.41
7586;BME280;12459;42.646;23.292;2022-07-29T18:52:47;93601.75;;;27.52;39.51
7586;BME280;12459;42.646;23.292;2022-07-29T19:07:49;93616.06;;;27.80;38.38
7586;BME280;12459;42.646;23.292;2022-07-29T19:22:51;93631.63;;;27.78;38.23
7586;BME280;12459;42.646;23.292;2022-07-29T19:37:53;93632.31;;;27.84;37.52
7586;BME280;12459;42.646;23.292;2022-07-29T19:52:55;93640.63;;;27.43;38.56
7586;BME280;12459;42.646;23.292;2022-07-29T20:07:57;93638.56;;;27.49;38.76
7586;BME280;12459;42.646;23.292;2022-07-29T20:22:59;93638.06;;;27.09;40.10
7586;BME280;12459;42.646;23.292;2022-07-29T20:38:02;93639.03;;;27.17;40.74
7586;BME280;12459;42.646;23.292;2022-07-29T20:53:04;93641.66;;;26.82;41.90
7586;BME280;12459;42.646;23.292;2022-07-29T21:08:05;93661.75;;;25.20;48.07
7586;BME280;12459;42.646;23.292;2022-07-29T21:23:07;93648.94;;;24.41;50.66
7586;BME280;12459;42.646;23.292;2022-07-29T21:38:08;93644.69;;;24.34;51.20
7586;BME280;12459;42.646;23.292;2022-07-29T21:53:10;93651.44;;;24.39;51.41
7586;BME280;12459;42.646;23.292;2022-07-29T22:16:06;93644.78;;;24.14;52.49
7586;BME280;12459;42.646;23.292;2022-07-29T22:31:10;93663.31;;;23.62;53.85
7586;BME280;12459;42.646;23.292;2022-07-29T22:46:12;93651.53;;;24.18;51.73
7586;BME280;12459;42.646;23.292;2022-07-29T23:01:14;93653.31;;;23.33;55.24
7586;BME280;12459;42.646;23.292;2022-07-29T23:16:36;93654.78;;;23.85;54.60
7586;BME280;12459;42.646;23.292;2022-07-29T23:31:38;93667.47;;;23.05;56.98
7586;BME280;12459;42.646;23.292;2022-07-29T23:46:47;93668.06;;;22.34;60.84
